Flight Track Log - Related Links

Times and Time Zones

All times are in EDT time to prevent confusion due to time zone crossing. See the EJA966 flight status page for this flight to view local times or setup timezone preferences in your user account.

Time Position Orientation Groundspeed Altitude Reporting Facility
EDT Latitude Longitude Course Direction KTS MPH feet Rate Location/Type
Thu 03:00:00 PM 37.7061 -121.7917 143° Southeast  Level Estimated
Thu 03:01:00 PM 37.6214 -121.7109 143° Southeast  Level Estimated
Thu 03:02:00 PM 37.5366 -121.6302 143° Southeast  Level Estimated
Thu 03:03:00 PM 37.4518 -121.5497 143° Southeast  Level Estimated
Thu 03:04:00 PM 37.3669 -121.4695 143° Southeast  Level Estimated
Thu 03:05:00 PM 37.2820 -121.3893 143° Southeast  Level Estimated
Thu 03:06:00 PM 37.1970 -121.3094 143° Southeast  Level Estimated
Thu 03:07:00 PM 37.1120 -121.2297 143° Southeast  Level Estimated
Thu 03:07:29 PM 38.2003 -122.2925 143° Southeast 190 219 1,000  Level Oakland Center
Thu 03:08:00 PM 37.0269 -121.1501 143° Southeast  Level Estimated
Thu 03:08:31 PM 38.1719 -122.3756 247° West 234 269 4,600  Level Oakland Center
Thu 03:09:00 PM 36.9417 -121.0707 143° Southeast  Level Estimated
Thu 03:09:33 PM 38.1022 -122.4092 201° Southwest 264 304 7,100  Level Oakland Center
Thu 03:10:00 PM 36.8565 -120.9915 143° Southeast  Level Estimated
Thu 03:10:35 PM 38.0283 -122.3936 171° South 281 323 9,800  Level Oakland Center
Thu 03:11:00 PM 36.7713 -120.9124 143° Southeast  Level Estimated
Thu 03:11:36 PM 37.9600 -122.3203 140° Southeast 318 366 11,700  Level Oakland Center
Thu 03:12:00 PM 36.6860 -120.8336 143° Southeast  Level Estimated
Thu 03:12:38 PM 37.8861 -122.2408 140° Southeast 344 396 13,300  Level Oakland Center
Thu 03:13:40 PM 37.8072 -122.1572 140° Southeast 362 417 14,900 1,645 Climbing Oakland Center
Thu 03:14:42 PM 37.7269 -122.0722 140° Southeast 373 429 16,700 1,415 Climbing Oakland Center
Thu 03:15:43 PM 37.6456 -121.9878 141° Southeast 377 434 17,800 1,268 Climbing Oakland Center
Thu 03:16:45 PM 37.5600 -121.9003 141° Southeast 390 449 19,300 1,548 Climbing Oakland Center
Thu 03:17:47 PM 37.4558 -121.7917 140° Southeast 405 466 21,000 1,500 Climbing Oakland Center
Thu 03:18:49 PM 37.3672 -121.7011 141° Southeast 411 473 22,400 1,561 Climbing Oakland Center
Thu 03:19:50 PM 37.2711 -121.6028 141° Southeast 420 483 24,200 1,707 Climbing Oakland Center
Thu 03:20:52 PM 37.1808 -121.5078 140° Southeast 424 488 25,900 1,452 Climbing Oakland Center
Thu 03:21:54 PM 37.0867 -121.4125 141° Southeast 435 501 27,200 1,317 Climbing Oakland Center
Thu 03:22:55 PM 36.9967 -121.3211 141° Southeast 443 510 28,600 1,268 Climbing Oakland Center
Thu 03:23:57 PM 36.9003 -121.2206 140° Southeast 453 521 29,800 1,161 Climbing Oakland Center
Thu 03:24:59 PM 36.7919 -121.1144 142° Southeast 462 532 31,000 585 Climbing Oakland Center
Thu 03:26:00 PM 36.6911 -121.0108 141° Southeast 469 540 31,000  Level Oakland Center
Thu 03:27:02 PM 36.5908 -120.9114 141° Southeast 459 528 31,000  Level Oakland Center
Thu 03:28:04 PM 36.4722 -120.7922 141° Southeast 457 526 31,000  Level Oakland Center
Thu 03:29:06 PM 36.3764 -120.6939 140° Southeast 447 514 31,000  Level Oakland Center
Thu 03:30:07 PM 36.2781 -120.5989 142° Southeast 449 517 31,000  Level Oakland Center
Thu 03:31:09 PM 36.1797 -120.5008 141° Southeast 451 519 31,000  Level Oakland Center
Thu 03:32:11 PM 36.0836 -120.4064 142° Southeast 442 509 31,000  Level Oakland Center
Thu 03:33:12 PM 35.9883 -120.3122 141° Southeast 439 505 31,000  Level Oakland Center
Thu 03:34:14 PM 35.8911 -120.2178 142° Southeast 440 506 31,000  Level Oakland Center
Thu 03:35:16 PM 35.7947 -120.1222 141° Southeast 440 506 31,000  Level Oakland Center
Thu 03:36:18 PM 35.6778 -120.0075 141° Southeast 442 509 31,000  Level Oakland Center
Thu 03:37:05 PM 35.6178 -119.9519 143° Southeast 447 514 31,000 -110 Level Los Angeles Center
Thu 03:38:07 PM 35.4956 -119.8469 145° Southeast 444 511 30,800 -629 Descending Los Angeles Center
Thu 03:39:09 PM 35.3964 -119.7592 144° Southeast 440 506 29,700 -1,104 Descending Los Angeles Center
Thu 03:40:12 PM 35.2981 -119.6764 146° Southeast 431 496 28,500 -1,152 Descending Los Angeles Center
Thu 03:41:14 PM 35.2025 -119.5950 145° Southeast 422 486 27,300 -1,161 Descending Los Angeles Center
Thu 03:42:16 PM 35.1089 -119.5139 145° Southeast 415 478 26,100 -1,161 Descending Los Angeles Center
Thu 03:43:18 PM 35.0178 -119.4372 145° Southeast 402 463 24,900 -1,403 Descending Los Angeles Center
Thu 03:44:20 PM 34.9103 -119.3453 145° Southeast 395 455 23,200 -1,355 Descending Los Angeles Center
Thu 03:45:22 PM 34.8386 -119.2850 145° Southeast 393 452 22,100 -1,355 Descending Los Angeles Center
Thu 03:46:24 PM 34.7311 -119.1953 146° Southeast 391 450 20,400 -1,500 Descending Los Angeles Center
Thu 03:47:26 PM 34.6386 -119.1175 145° Southeast 384 442 19,000 -1,355 Descending Los Angeles Center
Thu 03:48:28 PM 34.5544 -119.0458 145° Southeast 369 425 17,600 -1,355 Descending Los Angeles Center
Thu 03:49:30 PM 34.4722 -118.9772 145° Southeast 358 412 16,200 -1,344 Descending Los Angeles Center
Thu 03:50:33 PM 34.3928 -118.9089 145° Southeast 350 403 14,800 -1,440 Descending Los Angeles Center
Thu 03:51:35 PM 34.3008 -118.8589 156° South 360 414 13,200 -1,403 Descending Los Angeles Center
Thu 03:52:37 PM 34.1914 -118.8192 163° South 341 392 11,900 -1,113 Descending Los Angeles Center
Thu 03:53:39 PM 34.1036 -118.7875 163° South 330 380 10,900 -919 Descending Los Angeles Center
Thu 03:54:41 PM 34.0364 -118.7111 137° Southeast 299 344 10,000 -581 Descending Los Angeles Center
Thu 03:55:43 PM 34.0267 -118.6228 98° East 265 305 9,700 -677 Descending Los Angeles Center
Thu 03:56:45 PM 34.0186 -118.5403 97° East 248 285 8,600 -912 Descending Los Angeles Center
Thu 03:57:48 PM 34.0108 -118.4650 97° East 210 242 7,800 -960 Descending Los Angeles Center
Thu 03:58:50 PM 34.0181 -118.3969 83° East 200 230 6,600 -1,065 Descending Los Angeles Center
Thu 03:59:52 PM 34.0244 -118.3306 83° East 199 229 5,600 -1,016 Descending Los Angeles Center
Thu 04:00:54 PM 34.0292 -118.2636 85° East 200 230 4,500 -774 Descending Los Angeles Center
Thu 04:01:56 PM 34.0342 -118.1956 85° East 203 234 4,000 -581 Descending Los Angeles Center
Thu 04:02:58 PM 34.0197 -118.1411 108° East 199 229 3,300 -672 Descending Los Angeles Center
Thu 04:04:01 PM 33.9833 -118.1806 222° Southwest 187 215 2,600 -336 Descending Los Angeles Center
Thu 04:05:03 PM 33.9678 -118.2486 255° West 180 207 2,600 -435 Level Los Angeles Center
Thu 04:06:05 PM 33.9617 -118.3086 263° West 181 208 1,700 -774 Descending Los Angeles Center
Thu 04:07:07 PM 33.9578 -118.3581 265° West 159 183 1,000 -677 Descending Los Angeles Center
Thu 04:08:09 PM 33.9522 -118.3992 261° West 137 158 300 -677 Descending Los Angeles Center
Thu 04:10:00 PM 33.9333 -118.4000 249° West  Level FlightAware Approximate
Thu 04:17:00 PM 33.9425 -118.4081 249° West  Level Estimated

Login

Don't have an account? Register now (free) for customized features, flight alerts, and more!